sensor_id;sensor_type;location;lat;lon;timestamp;pressure;altitude;pressure_sealevel;temperature;humidity
40708;BME280;26392;42.696;23.350;2023-05-07T00:01:02;95548.53;;;10.30;100.00
40708;BME280;26392;42.696;23.350;2023-05-07T00:03:27;95552.06;;;10.30;100.00
40708;BME280;26392;42.696;23.350;2023-05-07T00:05:53;95554.66;;;10.37;100.00
40708;BME280;26392;42.696;23.350;2023-05-07T00:08:19;95558.00;;;10.27;100.00
40708;BME280;26392;42.696;23.350;2023-05-07T00:10:45;95552.22;;;10.24;100.00
40708;BME280;26392;42.696;23.350;2023-05-07T00:13:11;95552.72;;;10.21;100.00
40708;BME280;26392;42.696;23.350;2023-05-07T00:15:37;95554.03;;;10.18;100.00
40708;BME280;26392;42.696;23.350;2023-05-07T00:18:02;95551.06;;;10.20;100.00
40708;BME280;26392;42.696;23.350;2023-05-07T00:20:28;95555.44;;;10.21;100.00
40708;BME280;26392;42.696;23.350;2023-05-07T00:22:53;95553.03;;;10.24;100.00
40708;BME280;26392;42.696;23.350;2023-05-07T00:25:18;95541.75;;;10.33;100.00
40708;BME280;26392;42.696;23.350;2023-05-07T00:27:45;95543.06;;;10.30;100.00
40708;BME280;26392;42.696;23.350;2023-05-07T00:30:11;95547.34;;;10.26;100.00
40708;BME280;26392;42.696;23.350;2023-05-07T00:32:36;95540.63;;;10.28;100.00
40708;BME280;26392;42.696;23.350;2023-05-07T00:35:03;95544.88;;;10.24;100.00
40708;BME280;26392;42.696;23.350;2023-05-07T00:37:28;95548.59;;;10.18;100.00
40708;BME280;26392;42.696;23.350;2023-05-07T00:39:54;95551.81;;;10.15;100.00
40708;BME280;26392;42.696;23.350;2023-05-07T00:42:19;95549.25;;;10.08;100.00
40708;BME280;26392;42.696;23.350;2023-05-07T00:44:45;95546.94;;;10.00;100.00
40708;BME280;26392;42.696;23.350;2023-05-07T00:47:11;95558.38;;;10.02;100.00
40708;BME280;26392;42.696;23.350;2023-05-07T00:49:42;95557.22;;;9.98;100.00
40708;BME280;26392;42.696;23.350;2023-05-07T00:52:09;95555.19;;;10.05;100.00
40708;BME280;26392;42.696;23.350;2023-05-07T00:54:36;95549.56;;;9.95;100.00
40708;BME280;26392;42.696;23.350;2023-05-07T00:57:02;95551.47;;;9.95;100.00
40708;BME280;26392;42.696;23.350;2023-05-07T00:59:28;95560.34;;;9.90;100.00
40708;BME280;26392;42.696;23.350;2023-05-07T01:01:54;95555.41;;;9.87;100.00
40708;BME280;26392;42.696;23.350;2023-05-07T01:04:19;95555.88;;;9.84;100.00
40708;BME280;26392;42.696;23.350;2023-05-07T01:06:45;95557.28;;;9.86;100.00
40708;BME280;26392;42.696;23.350;2023-05-07T01:09:12;95569.09;;;9.92;100.00
40708;BME280;26392;42.696;23.350;2023-05-07T01:11:37;95566.47;;;9.97;100.00
40708;BME280;26392;42.696;23.350;2023-05-07T01:14:04;95558.81;;;9.94;100.00
40708;BME280;26392;42.696;23.350;2023-05-07T01:16:29;95557.63;;;9.90;100.00
40708;BME280;26392;42.696;23.350;2023-05-07T01:18:59;95557.28;;;9.86;100.00
40708;BME280;26392;42.696;23.350;2023-05-07T01:21:26;95555.31;;;9.82;100.00
40708;BME280;26392;42.696;23.350;2023-05-07T01:23:52;95559.75;;;9.88;100.00
40708;BME280;26392;42.696;23.350;2023-05-07T01:26:19;95558.81;;;9.94;100.00
40708;BME280;26392;42.696;23.350;2023-05-07T01:28:45;95554.09;;;9.90;100.00
40708;BME280;26392;42.696;23.350;2023-05-07T01:31:12;95562.97;;;9.85;100.00
40708;BME280;26392;42.696;23.350;2023-05-07T01:33:40;95560.41;;;9.78;100.00
40708;BME280;26392;42.696;23.350;2023-05-07T01:36:07;95552.47;;;9.77;100.00
40708;BME280;26392;42.696;23.350;2023-05-07T01:38:35;95558.75;;;9.77;100.00
40708;BME280;26392;42.696;23.350;2023-05-07T01:41:02;95561.56;;;9.82;100.00
40708;BME280;26392;42.696;23.350;2023-05-07T01:43:29;95547.63;;;9.79;100.00
40708;BME280;26392;42.696;23.350;2023-05-07T01:45:55;95546.91;;;9.83;100.00
40708;BME280;26392;42.696;23.350;2023-05-07T01:48:22;95549.03;;;9.81;100.00
40708;BME280;26392;42.696;23.350;2023-05-07T01:50:48;95542.09;;;9.74;100.00
40708;BME280;26392;42.696;23.350;2023-05-07T01:53:14;95540.78;;;9.48;100.00
40708;BME280;26392;42.696;23.350;2023-05-07T01:55:40;95521.84;;;9.53;100.00
40708;BME280;26392;42.696;23.350;2023-05-07T01:58:05;95528.28;;;9.47;100.00
40708;BME280;26392;42.696;23.350;2023-05-07T02:00:31;95539.75;;;9.37;100.00
40708;BME280;26392;42.696;23.350;2023-05-07T02:02:57;95536.81;;;9.27;100.00
40708;BME280;26392;42.696;23.350;2023-05-07T02:05:22;95522.31;;;9.21;100.00
40708;BME280;26392;42.696;23.350;2023-05-07T02:07:48;95525.50;;;9.18;100.00
40708;BME280;26392;42.696;23.350;2023-05-07T02:10:13;95522.78;;;9.18;100.00
40708;BME280;26392;42.696;23.350;2023-05-07T02:12:39;95521.50;;;9.21;100.00
40708;BME280;26392;42.696;23.350;2023-05-07T02:15:05;95511.78;;;9.25;100.00
40708;BME280;26392;42.696;23.350;2023-05-07T02:17:30;95500.56;;;9.21;100.00
40708;BME280;26392;42.696;23.350;2023-05-07T02:19:58;95503.44;;;9.14;100.00
40708;BME280;26392;42.696;23.350;2023-05-07T02:22:23;95507.31;;;9.18;100.00
40708;BME280;26392;42.696;23.350;2023-05-07T02:24:49;95511.69;;;9.19;100.00
40708;BME280;26392;42.696;23.350;2023-05-07T02:27:14;95516.06;;;9.21;100.00
40708;BME280;26392;42.696;23.350;2023-05-07T02:29:40;95506.84;;;9.22;100.00
40708;BME280;26392;42.696;23.350;2023-05-07T02:32:05;95510.13;;;9.24;100.00
40708;BME280;26392;42.696;23.350;2023-05-07T02:34:31;95510.22;;;9.29;100.00
40708;BME280;26392;42.696;23.350;2023-05-07T02:36:56;95514.84;;;9.28;100.00
40708;BME280;26392;42.696;23.350;2023-05-07T02:39:22;95515.28;;;9.37;100.00
40708;BME280;26392;42.696;23.350;2023-05-07T02:41:47;95515.97;;;9.44;100.00
40708;BME280;26392;42.696;23.350;2023-05-07T02:44:12;95516.06;;;9.49;100.00
40708;BME280;26392;42.696;23.350;2023-05-07T02:46:38;95511.19;;;9.51;100.00
40708;BME280;26392;42.696;23.350;2023-05-07T02:49:03;95509.66;;;9.55;100.00
40708;BME280;26392;42.696;23.350;2023-05-07T02:51:30;95508.69;;;9.61;100.00
40708;BME280;26392;42.696;23.350;2023-05-07T02:53:55;95518.47;;;9.62;100.00
40708;BME280;26392;42.696;23.350;2023-05-07T02:56:21;95513.13;;;9.68;100.00
40708;BME280;26392;42.696;23.350;2023-05-07T02:58:46;95517.75;;;9.67;100.00
40708;BME280;26392;42.696;23.350;2023-05-07T03:01:12;95527.44;;;9.75;100.00
40708;BME280;26392;42.696;23.350;2023-05-07T03:03:39;95519.59;;;9.78;100.00
40708;BME280;26392;42.696;23.350;2023-05-07T03:06:05;95524.22;;;9.78;100.00
40708;BME280;26392;42.696;23.350;2023-05-07T03:08:32;95532.38;;;9.78;100.00
40708;BME280;26392;42.696;23.350;2023-05-07T03:10:57;95534.03;;;9.79;100.00
40708;BME280;26392;42.696;23.350;2023-05-07T03:13:23;95530.22;;;9.80;100.00
40708;BME280;26392;42.696;23.350;2023-05-07T03:15:48;95547.94;;;9.82;100.00
40708;BME280;26392;42.696;23.350;2023-05-07T03:18:14;95541.03;;;9.75;100.00
40708;BME280;26392;42.696;23.350;2023-05-07T03:20:39;95541.03;;;9.75;100.00
40708;BME280;26392;42.696;23.350;2023-05-07T03:23:04;95545.97;;;9.78;100.00
40708;BME280;26392;42.696;23.350;2023-05-07T03:25:30;95537.16;;;9.88;100.00
40708;BME280;26392;42.696;23.350;2023-05-07T03:27:56;95539.88;;;9.88;100.00
40708;BME280;26392;42.696;23.350;2023-05-07T03:30:21;95545.44;;;9.93;100.00
40708;BME280;26392;42.696;23.350;2023-05-07T03:32:47;95544.44;;;9.99;100.00
40708;BME280;26392;42.696;23.350;2023-05-07T03:35:12;95551.47;;;10.12;100.00
40708;BME280;26392;42.696;23.350;2023-05-07T03:37:38;95544.22;;;10.17;100.00
40708;BME280;26392;42.696;23.350;2023-05-07T03:40:04;95556.75;;;10.18;100.00
40708;BME280;26392;42.696;23.350;2023-05-07T03:42:30;95550.72;;;10.16;100.00
40708;BME280;26392;42.696;23.350;2023-05-07T03:44:56;95553.41;;;10.28;100.00
40708;BME280;26392;42.696;23.350;2023-05-07T03:47:21;95547.13;;;10.27;100.00
40708;BME280;26392;42.696;23.350;2023-05-07T03:49:46;95551.59;;;10.50;100.00
40708;BME280;26392;42.696;23.350;2023-05-07T03:52:14;95554.13;;;10.74;100.00
40708;BME280;26392;42.696;23.350;2023-05-07T03:54:39;95558.22;;;10.93;100.00
40708;BME280;26392;42.696;23.350;2023-05-07T03:57:05;95561.72;;;11.11;100.00
40708;BME280;26392;42.696;23.350;2023-05-07T03:59:30;95553.34;;;11.39;100.00
40708;BME280;26392;42.696;23.350;2023-05-07T04:01:55;95567.91;;;11.72;100.00
40708;BME280;26392;42.696;23.350;2023-05-07T04:04:21;95564.97;;;12.01;100.00
40708;BME280;26392;42.696;23.350;2023-05-07T04:06:46;95569.69;;;12.38;100.00
40708;BME280;26392;42.696;23.350;2023-05-07T04:09:12;95578.00;;;12.53;100.00
40708;BME280;26392;42.696;23.350;2023-05-07T04:11:37;95576.09;;;12.53;100.00
40708;BME280;26392;42.696;23.350;2023-05-07T04:14:05;95577.59;;;12.66;100.00
40708;BME280;26392;42.696;23.350;2023-05-07T04:16:30;95586.38;;;12.73;100.00
40708;BME280;26392;42.696;23.350;2023-05-07T04:18:56;95586.75;;;12.50;100.00
40708;BME280;26392;42.696;23.350;2023-05-07T04:21:21;95589.88;;;12.64;100.00
40708;BME280;26392;42.696;23.350;2023-05-07T04:23:47;95587.63;;;12.98;100.00
40708;BME280;26392;42.696;23.350;2023-05-07T04:26:13;95583.91;;;13.62;100.00
40708;BME280;26392;42.696;23.350;2023-05-07T04:28:39;95604.16;;;14.54;100.00
40708;BME280;26392;42.696;23.350;2023-05-07T04:31:06;95604.88;;;15.52;100.00
40708;BME280;26392;42.696;23.350;2023-05-07T04:33:31;95605.25;;;16.50;100.00
40708;BME280;26392;42.696;23.350;2023-05-07T04:35:58;95602.94;;;17.02;81.06
40708;BME280;26392;42.696;23.350;2023-05-07T04:38:31;95607.72;;;17.49;76.86
40708;BME280;26392;42.696;23.350;2023-05-07T04:40:57;95606.25;;;18.05;71.22
40708;BME280;26392;42.696;23.350;2023-05-07T04:43:23;95612.28;;;18.69;65.33
40708;BME280;26392;42.696;23.350;2023-05-07T04:45:50;95608.31;;;18.94;62.27
40708;BME280;26392;42.696;23.350;2023-05-07T04:48:16;95612.47;;;19.10;59.92
40708;BME280;26392;42.696;23.350;2023-05-07T04:50:46;95610.06;;;19.04;61.05
40708;BME280;26392;42.696;23.350;2023-05-07T04:53:12;95609.59;;;19.15;58.77
40708;BME280;26392;42.696;23.350;2023-05-07T04:55:37;95609.38;;;18.79;60.33
40708;BME280;26392;42.696;23.350;2023-05-07T04:58:02;95601.97;;;18.18;61.72
40708;BME280;26392;42.696;23.350;2023-05-07T05:00:30;95614.97;;;17.40;65.83
40708;BME280;26392;42.696;23.350;2023-05-07T05:02:55;95606.22;;;16.69;71.16
40708;BME280;26392;42.696;23.350;2023-05-07T05:05:20;95604.09;;;16.17;76.40
40708;BME280;26392;42.696;23.350;2023-05-07T05:07:46;95603.34;;;15.96;81.44
40708;BME280;26392;42.696;23.350;2023-05-07T05:10:12;95596.03;;;15.65;84.03
40708;BME280;26392;42.696;23.350;2023-05-07T05:12:37;95600.53;;;15.36;87.45
40708;BME280;26392;42.696;23.350;2023-05-07T05:15:04;95601.38;;;15.21;90.81
40708;BME280;26392;42.696;23.350;2023-05-07T05:17:29;95609.09;;;14.88;95.26
40708;BME280;26392;42.696;23.350;2023-05-07T05:19:55;95604.97;;;14.91;96.67
40708;BME280;26392;42.696;23.350;2023-05-07T05:22:21;95605.78;;;14.81;99.19
40708;BME280;26392;42.696;23.350;2023-05-07T05:24:46;95609.84;;;14.48;100.00
40708;BME280;26392;42.696;23.350;2023-05-07T05:27:11;95611.28;;;14.61;100.00
40708;BME280;26392;42.696;23.350;2023-05-07T05:29:37;95601.69;;;14.63;100.00
40708;BME280;26392;42.696;23.350;2023-05-07T05:32:02;95605.25;;;14.74;100.00
40708;BME280;26392;42.696;23.350;2023-05-07T05:34:28;95610.47;;;14.81;100.00
40708;BME280;26392;42.696;23.350;2023-05-07T05:36:53;95611.84;;;14.78;100.00
40708;BME280;26392;42.696;23.350;2023-05-07T05:39:18;95615.41;;;14.63;100.00
40708;BME280;26392;42.696;23.350;2023-05-07T05:41:44;95608.25;;;14.52;100.00
40708;BME280;26392;42.696;23.350;2023-05-07T05:44:09;95611.56;;;14.80;100.00
40708;BME280;26392;42.696;23.350;2023-05-07T05:46:35;95604.44;;;14.94;100.00
40708;BME280;26392;42.696;23.350;2023-05-07T05:49:00;95606.88;;;15.06;100.00
40708;BME280;26392;42.696;23.350;2023-05-07T05:51:26;95609.06;;;15.14;100.00
40708;BME280;26392;42.696;23.350;2023-05-07T05:53:51;95604.66;;;15.23;100.00
40708;BME280;26392;42.696;23.350;2023-05-07T05:56:17;95607.44;;;15.08;100.00
40708;BME280;26392;42.696;23.350;2023-05-07T05:58:42;95612.94;;;15.03;100.00
40708;BME280;26392;42.696;23.350;2023-05-07T06:01:08;95602.25;;;14.96;100.00
40708;BME280;26392;42.696;23.350;2023-05-07T06:03:33;95610.19;;;14.92;100.00
40708;BME280;26392;42.696;23.350;2023-05-07T06:05:58;95611.84;;;14.93;100.00
40708;BME280;26392;42.696;23.350;2023-05-07T06:08:25;95616.50;;;15.03;100.00
40708;BME280;26392;42.696;23.350;2023-05-07T06:10:51;95610.44;;;15.06;100.00
40708;BME280;26392;42.696;23.350;2023-05-07T06:13:16;95614.00;;;15.12;100.00
40708;BME280;26392;42.696;23.350;2023-05-07T06:15:41;95597.53;;;15.17;100.00
40708;BME280;26392;42.696;23.350;2023-05-07T06:18:07;95605.50;;;15.24;100.00
40708;BME280;26392;42.696;23.350;2023-05-07T06:20:32;95600.28;;;15.22;100.00
40708;BME280;26392;42.696;23.350;2023-05-07T06:22:58;95599.16;;;15.28;100.00
40708;BME280;26392;42.696;23.350;2023-05-07T06:25:23;95608.75;;;15.31;100.00
40708;BME280;26392;42.696;23.350;2023-05-07T06:27:48;95599.41;;;15.47;100.00
40708;BME280;26392;42.696;23.350;2023-05-07T06:30:14;95594.16;;;15.56;100.00
40708;BME280;26392;42.696;23.350;2023-05-07T06:32:40;95587.53;;;15.62;100.00
40708;BME280;26392;42.696;23.350;2023-05-07T06:35:06;95583.13;;;15.66;100.00
40708;BME280;26392;42.696;23.350;2023-05-07T06:37:31;95586.63;;;15.87;100.00
40708;BME280;26392;42.696;23.350;2023-05-07T06:39:57;95584.66;;;15.98;99.35
40708;BME280;26392;42.696;23.350;2023-05-07T06:42:22;95586.06;;;15.90;98.62
40708;BME280;26392;42.696;23.350;2023-05-07T06:44:48;95579.44;;;15.96;97.42
40708;BME280;26392;42.696;23.350;2023-05-07T06:47:13;95577.00;;;15.89;97.07
40708;BME280;26392;42.696;23.350;2023-05-07T06:49:38;95565.00;;;15.75;97.38
40708;BME280;26392;42.696;23.350;2023-05-07T06:52:04;95557.78;;;15.89;98.42
40708;BME280;26392;42.696;23.350;2023-05-07T06:54:29;95572.47;;;16.14;99.25
40708;BME280;26392;42.696;23.350;2023-05-07T06:56:55;95573.81;;;16.22;94.67
40708;BME280;26392;42.696;23.350;2023-05-07T06:59:20;95565.22;;;16.33;95.76
40708;BME280;26392;42.696;23.350;2023-05-07T07:01:45;95568.56;;;16.25;94.26
40708;BME280;26392;42.696;23.350;2023-05-07T07:04:11;95571.44;;;16.05;95.12
40708;BME280;26392;42.696;23.350;2023-05-07T07:06:36;95574.91;;;16.21;96.31
40708;BME280;26392;42.696;23.350;2023-05-07T07:09:02;95575.84;;;16.45;96.62
40708;BME280;26392;42.696;23.350;2023-05-07T07:11:27;95571.56;;;16.63;93.80
40708;BME280;26392;42.696;23.350;2023-05-07T07:13:53;95567.22;;;16.57;91.79
40708;BME280;26392;42.696;23.350;2023-05-07T07:16:20;95560.09;;;16.56;88.84
40708;BME280;26392;42.696;23.350;2023-05-07T07:18:46;95563.41;;;16.58;89.33
40708;BME280;26392;42.696;23.350;2023-05-07T07:21:11;95558.34;;;16.70;89.47
40708;BME280;26392;42.696;23.350;2023-05-07T07:23:37;95560.06;;;16.95;90.71
40708;BME280;26392;42.696;23.350;2023-05-07T07:26:02;95553.31;;;17.12;86.92
40708;BME280;26392;42.696;23.350;2023-05-07T07:28:27;95551.06;;;17.14;85.89
40708;BME280;26392;42.696;23.350;2023-05-07T07:30:53;95553.25;;;17.17;84.49
40708;BME280;26392;42.696;23.350;2023-05-07T07:33:18;95548.84;;;17.16;84.73
40708;BME280;26392;42.696;23.350;2023-05-07T07:35:44;95552.19;;;17.13;83.44
40708;BME280;26392;42.696;23.350;2023-05-07T07:38:09;95558.56;;;17.08;85.28
40708;BME280;26392;42.696;23.350;2023-05-07T07:40:35;95566.63;;;17.29;83.42
40708;BME280;26392;42.696;23.350;2023-05-07T07:43:00;95563.50;;;17.35;82.02
40708;BME280;26392;42.696;23.350;2023-05-07T07:45:26;95564.44;;;17.50;82.70
40708;BME280;26392;42.696;23.350;2023-05-07T07:47:52;95564.50;;;17.44;82.86
40708;BME280;26392;42.696;23.350;2023-05-07T07:50:17;95562.84;;;17.19;85.26
40708;BME280;26392;42.696;23.350;2023-05-07T07:52:43;95566.50;;;17.39;84.79
40708;BME280;26392;42.696;23.350;2023-05-07T07:55:09;95570.13;;;17.58;77.21
40708;BME280;26392;42.696;23.350;2023-05-07T07:57:34;95573.50;;;17.79;76.98
40708;BME280;26392;42.696;23.350;2023-05-07T07:59:59;95568.31;;;17.73;76.03
40708;BME280;26392;42.696;23.350;2023-05-07T08:02:26;95558.84;;;17.84;76.84
40708;BME280;26392;42.696;23.350;2023-05-07T08:04:52;95556.00;;;17.89;74.00
40708;BME280;26392;42.696;23.350;2023-05-07T08:07:17;95554.25;;;17.98;73.53
40708;BME280;26392;42.696;23.350;2023-05-07T08:09:46;95557.84;;;17.99;71.23
40708;BME280;26392;42.696;23.350;2023-05-07T08:12:11;95557.31;;;18.16;71.11
40708;BME280;26392;42.696;23.350;2023-05-07T08:14:36;95561.56;;;18.27;70.67
40708;BME280;26392;42.696;23.350;2023-05-07T08:17:02;95560.66;;;18.31;68.11
40708;BME280;26392;42.696;23.350;2023-05-07T08:19:27;95559.31;;;18.48;69.59
40708;BME280;26392;42.696;23.350;2023-05-07T08:21:53;95549.03;;;18.53;71.09
40708;BME280;26392;42.696;23.350;2023-05-07T08:24:18;95557.88;;;18.69;71.08
40708;BME280;26392;42.696;23.350;2023-05-07T08:26:44;95553.19;;;18.89;71.46
40708;BME280;26392;42.696;23.350;2023-05-07T08:29:10;95538.06;;;19.00;69.28
40708;BME280;26392;42.696;23.350;2023-05-07T08:31:36;95545.97;;;19.20;67.84
40708;BME280;26392;42.696;23.350;2023-05-07T08:34:02;95528.81;;;19.23;66.11
40708;BME280;26392;42.696;23.350;2023-05-07T08:36:28;95530.06;;;19.45;65.38
40708;BME280;26392;42.696;23.350;2023-05-07T08:38:54;95535.41;;;19.55;64.87
40708;BME280;26392;42.696;23.350;2023-05-07T08:41:20;95531.91;;;19.50;63.24
40708;BME280;26392;42.696;23.350;2023-05-07T08:43:48;95534.34;;;19.51;62.78
40708;BME280;26392;42.696;23.350;2023-05-07T08:46:17;95528.25;;;19.68;62.72
40708;BME280;26392;42.696;23.350;2023-05-07T08:48:44;95533.47;;;19.70;61.33
40708;BME280;26392;42.696;23.350;2023-05-07T08:51:12;95530.38;;;19.71;59.27
40708;BME280;26392;42.696;23.350;2023-05-07T08:53:40;95527.50;;;19.90;59.37
40708;BME280;26392;42.696;23.350;2023-05-07T08:56:08;95528.13;;;19.73;57.58
40708;BME280;26392;42.696;23.350;2023-05-07T08:58:33;95518.50;;;19.98;56.11
40708;BME280;26392;42.696;23.350;2023-05-07T09:01:02;95524.81;;;20.12;55.30
40708;BME280;26392;42.696;23.350;2023-05-07T09:03:30;95513.00;;;20.21;53.52
40708;BME280;26392;42.696;23.350;2023-05-07T09:05:55;95517.47;;;20.30;54.14
40708;BME280;26392;42.696;23.350;2023-05-07T09:08:24;95506.56;;;20.48;53.00
40708;BME280;26392;42.696;23.350;2023-05-07T09:10:51;95505.53;;;20.58;51.52
40708;BME280;26392;42.696;23.350;2023-05-07T09:13:17;95509.28;;;20.39;52.22
40708;BME280;26392;42.696;23.350;2023-05-07T09:15:43;95510.13;;;20.26;53.63
40708;BME280;26392;42.696;23.350;2023-05-07T09:18:08;95497.25;;;20.44;51.77
40708;BME280;26392;42.696;23.350;2023-05-07T09:20:36;95502.19;;;19.97;53.19
40708;BME280;26392;42.696;23.350;2023-05-07T09:23:01;95496.59;;;20.24;53.03
40708;BME280;26392;42.696;23.350;2023-05-07T09:25:28;95489.97;;;20.48;51.93
40708;BME280;26392;42.696;23.350;2023-05-07T09:27:54;95496.72;;;20.55;51.28
40708;BME280;26392;42.696;23.350;2023-05-07T09:30:20;95491.63;;;20.71;49.77
40708;BME280;26392;42.696;23.350;2023-05-07T09:32:46;95492.53;;;20.89;49.08
40708;BME280;26392;42.696;23.350;2023-05-07T09:35:15;95492.78;;;21.01;47.99
40708;BME280;26392;42.696;23.350;2023-05-07T09:37:42;95488.00;;;21.24;48.52
40708;BME280;26392;42.696;23.350;2023-05-07T09:40:08;95487.63;;;21.40;48.82
40708;BME280;26392;42.696;23.350;2023-05-07T09:42:34;95481.66;;;21.55;47.19
40708;BME280;26392;42.696;23.350;2023-05-07T09:45:00;95477.31;;;21.72;46.33
40708;BME280;26392;42.696;23.350;2023-05-07T09:47:29;95481.03;;;21.76;45.51
40708;BME280;26392;42.696;23.350;2023-05-07T09:49:59;95466.03;;;21.68;45.80
40708;BME280;26392;42.696;23.350;2023-05-07T09:52:27;95468.84;;;21.77;45.63
40708;BME280;26392;42.696;23.350;2023-05-07T09:54:59;95465.09;;;21.90;46.38
40708;BME280;26392;42.696;23.350;2023-05-07T09:57:25;95465.94;;;22.08;45.76
40708;BME280;26392;42.696;23.350;2023-05-07T09:59:53;95462.41;;;22.25;45.03
40708;BME280;26392;42.696;23.350;2023-05-07T10:02:21;95461.56;;;22.50;45.89
40708;BME280;26392;42.696;23.350;2023-05-07T10:04:48;95457.34;;;22.36;43.31
40708;BME280;26392;42.696;23.350;2023-05-07T10:07:14;95467.44;;;22.23;42.92
40708;BME280;26392;42.696;23.350;2023-05-07T10:09:40;95459.94;;;22.23;43.25
40708;BME280;26392;42.696;23.350;2023-05-07T10:12:08;95453.41;;;22.28;42.64
40708;BME280;26392;42.696;23.350;2023-05-07T10:14:34;95454.72;;;22.48;42.64
40708;BME280;26392;42.696;23.350;2023-05-07T10:17:02;95449.44;;;22.81;43.58
40708;BME280;26392;42.696;23.350;2023-05-07T10:19:29;95437.94;;;23.17;42.63
40708;BME280;26392;42.696;23.350;2023-05-07T10:21:56;95436.84;;;23.01;40.55
40708;BME280;26392;42.696;23.350;2023-05-07T10:24:34;95443.34;;;23.14;40.62
40708;BME280;26392;42.696;23.350;2023-05-07T10:27:04;95437.06;;;22.61;40.85
40708;BME280;26392;42.696;23.350;2023-05-07T10:34:55;95428.00;;;22.90;40.65
40708;BME280;26392;42.696;23.350;2023-05-07T10:37:21;95427.91;;;22.69;38.79
40708;BME280;26392;42.696;23.350;2023-05-07T10:39:48;95422.53;;;22.55;38.83
40708;BME280;26392;42.696;23.350;2023-05-07T10:42:14;95419.44;;;22.48;39.82
40708;BME280;26392;42.696;23.350;2023-05-07T10:44:40;95408.16;;;22.53;40.03
40708;BME280;26392;42.696;23.350;2023-05-07T10:47:10;95416.94;;;22.73;40.40
40708;BME280;26392;42.696;23.350;2023-05-07T10:52:18;95409.16;;;23.13;38.79
40708;BME280;26392;42.696;23.350;2023-05-07T10:54:44;95403.38;;;23.27;38.53
40708;BME280;26392;42.696;23.350;2023-05-07T10:59:56;95403.41;;;23.57;37.78
40708;BME280;26392;42.696;23.350;2023-05-07T11:02:22;95395.38;;;23.55;37.58
40708;BME280;26392;42.696;23.350;2023-05-07T11:07:56;95404.63;;;23.68;38.67
40708;BME280;26392;42.696;23.350;2023-05-07T11:10:23;95394.84;;;23.71;38.07
40708;BME280;26392;42.696;23.350;2023-05-07T11:12:49;95394.19;;;23.65;38.10
40708;BME280;26392;42.696;23.350;2023-05-07T11:15:15;95398.31;;;23.59;38.06
40708;BME280;26392;42.696;23.350;2023-05-07T11:17:59;95398.94;;;23.64;38.11
40708;BME280;26392;42.696;23.350;2023-05-07T11:26:04;95390.97;;;23.24;35.53
40708;BME280;26392;42.696;23.350;2023-05-07T11:28:31;95381.03;;;23.15;35.66
40708;BME280;26392;42.696;23.350;2023-05-07T11:30:57;95383.66;;;23.20;35.48
40708;BME280;26392;42.696;23.350;2023-05-07T11:33:23;95383.91;;;23.36;35.87
40708;BME280;26392;42.696;23.350;2023-05-07T11:35:52;95376.81;;;23.47;36.76
40708;BME280;26392;42.696;23.350;2023-05-07T11:38:19;95377.00;;;23.63;36.35
40708;BME280;26392;42.696;23.350;2023-05-07T11:40:50;95376.59;;;23.82;36.08
40708;BME280;26392;42.696;23.350;2023-05-07T11:43:16;95380.00;;;23.87;36.33
40708;BME280;26392;42.696;23.350;2023-05-07T11:45:42;95371.56;;;23.96;34.27
40708;BME280;26392;42.696;23.350;2023-05-07T11:48:07;95368.38;;;23.85;34.36
40708;BME280;26392;42.696;23.350;2023-05-07T11:50:33;95376.66;;;23.73;34.78
40708;BME280;26392;42.696;23.350;2023-05-07T11:52:58;95378.09;;;23.79;34.90
40708;BME280;26392;42.696;23.350;2023-05-07T11:55:24;95374.63;;;23.82;34.41
40708;BME280;26392;42.696;23.350;2023-05-07T11:57:50;95367.25;;;23.86;32.93
40708;BME280;26392;42.696;23.350;2023-05-07T12:00:16;95366.22;;;23.91;34.31
40708;BME280;26392;42.696;23.350;2023-05-07T12:02:42;95365.94;;;24.05;33.54
40708;BME280;26392;42.696;23.350;2023-05-07T12:05:07;95362.63;;;24.11;34.60
40708;BME280;26392;42.696;23.350;2023-05-07T12:07:34;95360.91;;;24.19;34.73
40708;BME280;26392;42.696;23.350;2023-05-07T12:10:04;95358.31;;;24.35;36.26
40708;BME280;26392;42.696;23.350;2023-05-07T12:12:29;95358.84;;;24.49;36.19
40708;BME280;26392;42.696;23.350;2023-05-07T12:14:55;95353.66;;;24.39;34.49
40708;BME280;26392;42.696;23.350;2023-05-07T12:17:20;95353.31;;;24.28;34.51
40708;BME280;26392;42.696;23.350;2023-05-07T12:19:46;95348.47;;;24.38;34.59
40708;BME280;26392;42.696;23.350;2023-05-07T12:22:12;95343.28;;;24.15;33.69
40708;BME280;26392;42.696;23.350;2023-05-07T12:24:56;95342.19;;;24.07;34.30
40708;BME280;26392;42.696;23.350;2023-05-07T12:27:22;95346.59;;;24.08;32.63
40708;BME280;26392;42.696;23.350;2023-05-07T12:29:48;95342.47;;;23.94;31.61
40708;BME280;26392;42.696;23.350;2023-05-07T12:32:18;95336.22;;;23.97;32.13
40708;BME280;26392;42.696;23.350;2023-05-07T12:34:44;95331.63;;;24.01;31.09
40708;BME280;26392;42.696;23.350;2023-05-07T12:37:10;95329.44;;;23.85;31.65
40708;BME280;26392;42.696;23.350;2023-05-07T12:39:36;95325.91;;;23.76;32.08
40708;BME280;26392;42.696;23.350;2023-05-07T12:42:01;95327.53;;;23.77;32.25
40708;BME280;26392;42.696;23.350;2023-05-07T12:44:31;95322.13;;;23.81;32.40
40708;BME280;26392;42.696;23.350;2023-05-07T12:46:57;95321.44;;;23.84;32.98
40708;BME280;26392;42.696;23.350;2023-05-07T12:49:23;95305.19;;;23.65;33.28
40708;BME280;26392;42.696;23.350;2023-05-07T12:51:50;95310.75;;;23.65;33.27
40708;BME280;26392;42.696;23.350;2023-05-07T12:54:32;95314.06;;;23.37;33.64
40708;BME280;26392;42.696;23.350;2023-05-07T12:57:06;95303.63;;;23.34;33.83
40708;BME280;26392;42.696;23.350;2023-05-07T12:59:36;95297.06;;;23.39;33.73
40708;BME280;26392;42.696;23.350;2023-05-07T13:02:02;95287.53;;;23.61;34.34